createdAt,value
2022-11-09T00:00:50.426Z,13.70
2022-11-09T00:03:18.692Z,13.70
2022-11-09T00:05:55.930Z,13.70
2022-11-09T00:08:25.354Z,13.70
2022-11-09T00:10:53.469Z,13.70
2022-11-09T00:13:22.459Z,13.70
2022-11-09T00:15:50.688Z,13.70
2022-11-09T00:18:18.471Z,13.80
2022-11-09T00:20:48.187Z,13.80
2022-11-09T00:23:16.886Z,13.90
2022-11-09T00:25:47.389Z,13.90
2022-11-09T00:28:16.150Z,13.90
2022-11-09T00:30:44.016Z,13.90
2022-11-09T00:33:12.159Z,13.90
2022-11-09T00:35:40.102Z,13.80
2022-11-09T00:38:08.049Z,13.90
2022-11-09T00:40:35.898Z,13.90
2022-11-09T00:43:07.168Z,13.90
2022-11-09T00:45:35.053Z,13.90
2022-11-09T00:48:03.075Z,13.90
2022-11-09T00:50:31.083Z,13.90
2022-11-09T00:52:59.049Z,13.90
2022-11-09T00:55:27.098Z,13.90
2022-11-09T00:57:55.398Z,13.90
2022-11-09T01:00:26.260Z,13.90
2022-11-09T01:02:54.573Z,13.90
2022-11-09T01:05:22.419Z,13.80
2022-11-09T01:07:50.578Z,13.80
2022-11-09T01:10:18.601Z,13.80
2022-11-09T01:12:47.707Z,13.70
2022-11-09T01:15:16.303Z,13.70
2022-11-09T01:17:45.486Z,13.70
2022-11-09T01:20:13.979Z,13.70
2022-11-09T01:22:41.758Z,13.70
2022-11-09T01:25:10.528Z,13.70
2022-11-09T01:27:38.345Z,13.60
2022-11-09T01:30:07.856Z,13.60
2022-11-09T01:32:35.984Z,13.60
2022-11-09T01:35:08.612Z,13.60
2022-11-09T01:37:36.627Z,13.60
2022-11-09T01:40:05.316Z,13.60
2022-11-09T01:42:37.810Z,13.60
2022-11-09T01:45:25.944Z,13.60
2022-11-09T01:48:00.279Z,13.50
2022-11-09T01:50:39.199Z,13.60
2022-11-09T01:53:10.904Z,13.50
2022-11-09T01:55:40.346Z,13.50
2022-11-09T01:58:13.464Z,13.50
2022-11-09T02:00:44.686Z,13.40
2022-11-09T02:03:16.513Z,13.40
2022-11-09T02:05:46.649Z,13.40
2022-11-09T02:08:19.481Z,13.40
2022-11-09T02:10:56.047Z,13.40
2022-11-09T02:13:27.859Z,13.40
2022-11-09T02:15:55.826Z,13.40
2022-11-09T02:18:24.047Z,13.40
2022-11-09T02:20:54.965Z,13.50
2022-11-09T02:23:24.881Z,13.40
2022-11-09T02:25:58.139Z,13.40
2022-11-09T02:28:27.361Z,13.50
2022-11-09T02:30:57.948Z,13.50
2022-11-09T02:33:26.920Z,13.50
2022-11-09T02:35:57.404Z,13.50
2022-11-09T02:38:25.305Z,13.60
2022-11-09T02:40:53.961Z,13.60
2022-11-09T02:43:22.339Z,13.70
2022-11-09T02:45:50.628Z,13.70
2022-11-09T02:48:18.619Z,13.70
2022-11-09T02:50:46.423Z,13.70
2022-11-09T02:53:15.666Z,13.70
2022-11-09T02:55:45.943Z,13.80
2022-11-09T02:58:15.136Z,13.80
2022-11-09T03:00:43.157Z,13.90
2022-11-09T03:03:12.774Z,13.90
2022-11-09T03:05:40.707Z,13.90
2022-11-09T03:08:08.787Z,13.90
2022-11-09T03:10:38.397Z,13.90
2022-11-09T03:13:07.545Z,13.90
2022-11-09T03:15:37.944Z,13.90
2022-11-09T03:18:08.235Z,13.90
2022-11-09T03:20:36.222Z,13.90
2022-11-09T03:23:04.239Z,13.90
2022-11-09T03:25:34.914Z,14.00
2022-11-09T03:28:06.549Z,14.00
2022-11-09T03:30:35.300Z,13.90
2022-11-09T03:33:04.982Z,13.90
2022-11-09T03:35:33.721Z,13.90
2022-11-09T03:38:01.895Z,13.90
2022-11-09T03:40:29.809Z,13.90
2022-11-09T03:42:58.287Z,13.90
2022-11-09T03:45:28.816Z,13.90
2022-11-09T03:47:59.837Z,14.00
2022-11-09T03:50:28.840Z,14.00
2022-11-09T03:52:57.092Z,13.90
2022-11-09T03:55:25.307Z,13.90
2022-11-09T03:57:53.264Z,13.90
2022-11-09T04:00:23.617Z,13.90
2022-11-09T04:02:52.992Z,13.90
2022-11-09T04:05:21.070Z,13.90
2022-11-09T04:07:49.908Z,13.90
2022-11-09T04:10:18.259Z,13.90
2022-11-09T04:12:46.337Z,13.90
2022-11-09T04:15:14.693Z,13.90
2022-11-09T04:17:44.610Z,13.90
2022-11-09T04:20:14.267Z,13.90
2022-11-09T04:22:42.181Z,13.90
2022-11-09T04:25:10.141Z,13.90
2022-11-09T04:27:37.978Z,13.90
2022-11-09T04:30:06.854Z,13.90
2022-11-09T04:32:34.700Z,13.90
2022-11-09T04:35:02.506Z,13.90
2022-11-09T04:37:31.660Z,13.90
2022-11-09T04:39:59.472Z,13.80
2022-11-09T04:42:27.310Z,13.80
2022-11-09T04:44:55.088Z,13.80
2022-11-09T04:47:22.939Z,13.80
2022-11-09T04:49:50.750Z,13.70
2022-11-09T04:52:18.649Z,13.70
2022-11-09T04:54:47.843Z,13.70
2022-11-09T04:57:15.642Z,13.70
2022-11-09T04:59:43.425Z,13.80
2022-11-09T05:02:11.293Z,13.70
2022-11-09T05:04:39.204Z,13.70
2022-11-09T05:07:07.233Z,13.70
2022-11-09T05:09:35.051Z,13.70
2022-11-09T05:12:04.581Z,13.60
2022-11-09T05:14:32.363Z,13.60
2022-11-09T05:17:00.209Z,13.50
2022-11-09T05:19:28.046Z,13.50
2022-11-09T05:21:55.870Z,13.50
2022-11-09T05:24:22.676Z,13.50
2022-11-09T05:26:50.529Z,13.50
2022-11-09T05:29:19.682Z,13.50
2022-11-09T05:31:52.110Z,13.50
2022-11-09T05:34:20.329Z,13.50
2022-11-09T05:36:48.121Z,13.50
2022-11-09T05:39:15.942Z,13.50
2022-11-09T05:41:43.721Z,13.50
2022-11-09T05:44:11.529Z,13.50
2022-11-09T05:46:40.733Z,13.50
2022-11-09T05:49:08.887Z,13.50
2022-11-09T05:51:36.715Z,13.60
2022-11-09T05:54:04.640Z,13.60
2022-11-09T05:56:32.447Z,13.60
2022-11-09T05:59:00.298Z,13.70
2022-11-09T06:01:28.080Z,13.70
2022-11-09T06:03:57.408Z,13.80
2022-11-09T06:06:25.307Z,13.80
2022-11-09T06:08:53.142Z,13.80
2022-11-09T06:11:23.965Z,13.80
2022-11-09T06:13:52.730Z,13.80
2022-11-09T06:16:20.629Z,13.80
2022-11-09T06:18:48.539Z,13.80
2022-11-09T06:21:17.872Z,13.70
2022-11-09T06:23:45.706Z,13.70
2022-11-09T06:26:14.281Z,13.70
2022-11-09T06:28:42.979Z,13.60
2022-11-09T06:31:12.995Z,13.60
2022-11-09T06:33:41.064Z,13.70
2022-11-09T06:36:10.353Z,13.70
2022-11-09T06:38:39.787Z,13.70
2022-11-09T06:41:07.963Z,13.70
2022-11-09T06:43:35.821Z,13.70
2022-11-09T06:46:04.703Z,13.70
2022-11-09T06:48:32.543Z,13.70
2022-11-09T06:51:04.833Z,13.80
2022-11-09T06:53:33.403Z,13.80
2022-11-09T06:56:03.981Z,13.90
2022-11-09T06:58:32.529Z,13.80
2022-11-09T07:01:00.750Z,13.80
2022-11-09T07:03:28.658Z,13.90
2022-11-09T07:05:56.544Z,13.90
2022-11-09T07:08:24.407Z,13.90
2022-11-09T07:10:52.242Z,13.90
2022-11-09T07:13:21.723Z,13.90
2022-11-09T07:15:55.372Z,13.90
2022-11-09T07:18:23.659Z,13.90
2022-11-09T07:20:51.597Z,13.90
2022-11-09T07:23:19.823Z,13.90
2022-11-09T07:25:47.938Z,13.90
2022-11-09T07:28:15.887Z,13.90
2022-11-09T07:30:45.084Z,13.90
2022-11-09T07:33:16.004Z,13.80
2022-11-09T07:35:43.833Z,13.80
2022-11-09T07:38:11.723Z,13.80
2022-11-09T07:40:40.632Z,13.80
2022-11-09T07:43:08.894Z,13.80
2022-11-09T07:45:39.371Z,13.90
2022-11-09T07:48:10.858Z,13.80
2022-11-09T07:50:40.603Z,13.80
2022-11-09T07:53:09.491Z,13.80
2022-11-09T07:55:37.636Z,13.80
2022-11-09T07:58:07.624Z,13.80
2022-11-09T08:00:37.830Z,13.80
2022-11-09T08:03:06.188Z,13.80
2022-11-09T08:05:35.636Z,13.80
2022-11-09T08:08:06.581Z,13.80
2022-11-09T08:10:35.848Z,13.80
2022-11-09T08:13:05.653Z,13.80
2022-11-09T08:15:34.738Z,13.80
2022-11-09T08:18:04.218Z,13.90
2022-11-09T08:20:32.297Z,13.90
2022-11-09T08:23:04.579Z,13.90
2022-11-09T08:25:33.993Z,14.00
2022-11-09T08:28:03.232Z,14.00
2022-11-09T08:30:31.780Z,14.10
2022-11-09T08:33:00.420Z,14.20
2022-11-09T08:35:28.695Z,14.30
2022-11-09T08:37:56.798Z,14.30
2022-11-09T08:40:27.489Z,14.30
2022-11-09T08:42:55.356Z,14.30
2022-11-09T08:45:23.339Z,14.30
2022-11-09T08:47:59.420Z,14.30
2022-11-09T08:50:28.281Z,14.40
2022-11-09T08:52:56.444Z,14.40
2022-11-09T08:55:25.832Z,14.40
2022-11-09T08:57:55.372Z,14.50
2022-11-09T09:00:23.429Z,14.50
2022-11-09T09:02:51.321Z,14.50
2022-11-09T09:05:19.664Z,14.60
2022-11-09T09:07:47.533Z,14.60
2022-11-09T09:10:15.350Z,14.60
2022-11-09T09:12:44.547Z,14.70
2022-11-09T09:15:12.583Z,14.90
2022-11-09T09:17:40.435Z,15.10
2022-11-09T09:20:08.880Z,15.10
2022-11-09T09:22:37.651Z,15.20
2022-11-09T09:25:06.499Z,15.10
2022-11-09T09:27:34.337Z,15.20
2022-11-09T09:30:03.995Z,15.20
2022-11-09T09:32:31.844Z,15.30
2022-11-09T09:35:00.803Z,15.30
2022-11-09T09:37:28.677Z,15.30
2022-11-09T09:39:56.577Z,15.40
2022-11-09T09:42:31.551Z,15.40
2022-11-09T09:45:06.624Z,15.40
2022-11-09T09:47:47.566Z,15.50
2022-11-09T09:50:19.073Z,15.40
2022-11-09T09:53:17.781Z,15.50
2022-11-09T09:55:43.988Z,15.50
2022-11-09T09:58:15.073Z,15.50
2022-11-09T10:00:45.098Z,15.60
2022-11-09T10:03:18.350Z,15.70
2022-11-09T10:05:56.949Z,15.80
2022-11-09T10:08:46.350Z,15.80
2022-11-09T10:11:24.073Z,15.90
2022-11-09T10:14:16.539Z,15.90
2022-11-09T10:16:50.312Z,15.90
2022-11-09T10:19:43.826Z,15.80
2022-11-09T10:22:17.971Z,15.80
2022-11-09T10:25:18.373Z,15.80
2022-11-09T10:27:47.886Z,15.90
2022-11-09T10:30:17.961Z,16.10
2022-11-09T10:32:52.215Z,16.20
2022-11-09T10:35:22.641Z,16.20
2022-11-09T10:37:52.540Z,16.20
2022-11-09T10:40:24.978Z,16.10
2022-11-09T10:43:13.227Z,16.10
2022-11-09T10:46:04.693Z,16.20
2022-11-09T10:48:53.300Z,16.20
2022-11-09T10:51:41.831Z,16.30
2022-11-09T10:54:31.170Z,16.40
2022-11-09T10:57:19.552Z,16.30
2022-11-09T11:00:08.345Z,16.30
2022-11-09T11:02:55.372Z,16.20
2022-11-09T11:05:43.007Z,16.20
2022-11-09T11:08:33.318Z,16.30
2022-11-09T11:11:38.809Z,16.30
2022-11-09T11:14:31.477Z,16.30
2022-11-09T11:17:24.003Z,16.40
2022-11-09T11:20:31.913Z,16.30
2022-11-09T11:23:21.979Z,16.40
2022-11-09T11:26:28.146Z,16.30
2022-11-09T11:29:38.501Z,16.20
2022-11-09T11:32:25.485Z,16.20
2022-11-09T11:35:16.196Z,16.20
2022-11-09T11:38:15.990Z,16.30
2022-11-09T11:41:15.416Z,16.30
2022-11-09T11:44:12.084Z,16.20
2022-11-09T11:47:03.521Z,16.00
2022-11-09T11:50:04.201Z,15.80
2022-11-09T11:53:12.321Z,15.80
2022-11-09T11:56:18.938Z,15.70
2022-11-09T11:59:34.108Z,15.80
2022-11-09T12:02:37.035Z,15.90
2022-11-09T12:05:47.933Z,16.10
2022-11-09T12:08:45.487Z,16.10
2022-11-09T12:11:48.487Z,16.10
2022-11-09T12:14:49.097Z,16.10
2022-11-09T12:17:47.289Z,16.20
2022-11-09T12:20:38.570Z,16.20
2022-11-09T12:23:38.598Z,16.30
2022-11-09T12:26:34.249Z,16.20
2022-11-09T12:29:25.270Z,16.10
2022-11-09T12:32:22.416Z,16.10
2022-11-09T12:35:23.052Z,16.10
2022-11-09T12:38:15.331Z,16.10
2022-11-09T12:41:06.408Z,16.10
2022-11-09T12:43:57.675Z,16.10
2022-11-09T12:46:50.542Z,16.00
2022-11-09T12:49:40.930Z,16.00
2022-11-09T12:52:29.823Z,16.10
2022-11-09T12:55:18.353Z,16.10
2022-11-09T12:58:05.581Z,16.10
2022-11-09T13:00:55.162Z,16.10
2022-11-09T13:03:55.954Z,16.10
2022-11-09T13:06:43.157Z,16.00
2022-11-09T13:09:44.001Z,16.00
2022-11-09T13:12:36.263Z,15.90
2022-11-09T13:15:25.052Z,15.90
2022-11-09T13:18:25.193Z,15.90
2022-11-09T13:21:37.044Z,15.80
2022-11-09T13:24:55.139Z,15.70
2022-11-09T13:27:44.482Z,15.70
2022-11-09T13:30:42.796Z,15.70
2022-11-09T13:33:29.776Z,15.70
2022-11-09T13:36:20.782Z,15.70
2022-11-09T13:39:39.050Z,15.70
2022-11-09T13:42:29.533Z,15.70
2022-11-09T13:45:35.352Z,15.80
2022-11-09T13:48:35.095Z,15.80
2022-11-09T13:51:23.584Z,15.80
2022-11-09T13:54:29.273Z,15.80
2022-11-09T13:57:17.859Z,15.80
2022-11-09T14:00:07.672Z,15.80
2022-11-09T14:02:56.559Z,15.70
2022-11-09T14:05:44.996Z,15.70
2022-11-09T14:08:40.318Z,15.60
2022-11-09T14:12:01.782Z,15.60
2022-11-09T14:15:10.243Z,15.50
2022-11-09T14:18:09.223Z,15.50
2022-11-09T14:21:00.620Z,15.50
2022-11-09T14:23:47.367Z,15.50
2022-11-09T14:26:33.893Z,15.50
2022-11-09T14:29:23.241Z,15.50
2022-11-09T14:32:28.385Z,15.50
2022-11-09T14:35:23.644Z,15.50
2022-11-09T14:38:18.412Z,15.50
2022-11-09T14:41:05.303Z,15.40
2022-11-09T14:43:53.324Z,15.30
2022-11-09T14:46:39.656Z,15.30
2022-11-09T14:49:28.265Z,15.30
2022-11-09T14:52:18.673Z,15.20
2022-11-09T14:55:06.279Z,15.10
2022-11-09T14:57:55.708Z,15.10
2022-11-09T15:00:45.992Z,15.10
2022-11-09T15:03:32.719Z,15.00
2022-11-09T15:06:20.448Z,14.90
2022-11-09T15:09:09.883Z,14.90
2022-11-09T15:11:56.473Z,14.90
2022-11-09T15:14:42.953Z,14.90
2022-11-09T15:17:31.689Z,14.80
2022-11-09T15:20:28.124Z,14.90
2022-11-09T15:23:36.322Z,14.90
2022-11-09T15:26:29.068Z,14.80
2022-11-09T15:29:31.718Z,14.80
2022-11-09T15:32:20.183Z,14.70
2022-11-09T15:35:16.328Z,14.70
2022-11-09T15:38:03.402Z,14.70
2022-11-09T15:40:51.403Z,14.70
2022-11-09T15:43:37.991Z,14.70
2022-11-09T15:46:26.820Z,14.70
2022-11-09T15:49:19.704Z,14.60
2022-11-09T15:52:06.273Z,14.60
2022-11-09T15:54:52.791Z,14.40
2022-11-09T15:57:40.588Z,14.30
2022-11-09T16:00:27.075Z,14.30
2022-11-09T16:03:17.104Z,14.20
2022-11-09T16:06:03.402Z,14.20
2022-11-09T16:08:51.286Z,14.10
2022-11-09T16:11:37.637Z,14.10
2022-11-09T16:14:25.550Z,14.10
2022-11-09T16:17:11.912Z,14.00
2022-11-09T16:19:58.332Z,14.00
2022-11-09T16:22:44.634Z,13.90
2022-11-09T16:25:30.950Z,13.90
2022-11-09T16:28:19.520Z,13.90
2022-11-09T16:31:08.395Z,13.90
2022-11-09T16:33:54.832Z,13.90
2022-11-09T16:36:47.972Z,13.90
2022-11-09T16:39:37.831Z,13.90
2022-11-09T16:42:24.138Z,13.90
2022-11-09T16:45:14.252Z,13.90
2022-11-09T16:48:05.573Z,13.90
2022-11-09T16:50:53.440Z,13.90
2022-11-09T16:53:39.663Z,13.90
2022-11-09T16:56:25.964Z,13.90
2022-11-09T16:59:12.837Z,13.80
2022-11-09T17:02:00.447Z,13.80
2022-11-09T17:04:48.401Z,13.80
2022-11-09T17:07:42.185Z,13.80
2022-11-09T17:10:29.252Z,13.80
2022-11-09T17:13:15.796Z,13.70
2022-11-09T17:16:05.360Z,13.60
2022-11-09T17:18:53.342Z,13.50
2022-11-09T17:21:41.491Z,13.40
2022-11-09T17:24:28.881Z,13.40
2022-11-09T17:27:15.095Z,13.30
2022-11-09T17:30:02.031Z,13.30
2022-11-09T17:32:48.857Z,13.30
2022-11-09T17:35:36.610Z,13.20
2022-11-09T17:38:24.717Z,13.20
2022-11-09T17:41:14.392Z,13.20
2022-11-09T17:44:01.692Z,13.20
2022-11-09T17:46:48.158Z,13.20
2022-11-09T17:49:34.598Z,13.10
2022-11-09T17:52:21.005Z,13.10
2022-11-09T17:55:09.461Z,13.10
2022-11-09T17:57:55.744Z,13.10
2022-11-09T18:00:42.371Z,13.10
2022-11-09T18:03:32.671Z,13.10
2022-11-09T18:06:21.340Z,13.10
2022-11-09T18:12:16.487Z,13.10
2022-11-09T18:15:02.960Z,13.10
2022-11-09T18:17:49.423Z,13.20
2022-11-09T18:20:38.977Z,13.20
2022-11-09T18:23:25.646Z,13.30
2022-11-09T18:26:12.420Z,13.30
2022-11-09T18:29:00.218Z,13.30
2022-11-09T18:31:46.731Z,13.40
2022-11-09T18:34:33.415Z,13.30
2022-11-09T18:37:19.775Z,13.30
2022-11-09T18:40:07.597Z,13.30
2022-11-09T18:42:54.046Z,13.30
2022-11-09T18:45:41.666Z,13.20
2022-11-09T18:48:28.707Z,13.20
2022-11-09T18:51:15.242Z,13.10
2022-11-09T18:54:01.724Z,13.10
2022-11-09T18:56:48.968Z,13.10
2022-11-09T18:59:37.724Z,13.00
2022-11-09T19:02:25.617Z,13.00
2022-11-09T19:05:11.744Z,13.00
2022-11-09T19:07:58.383Z,13.00
2022-11-09T19:10:45.069Z,13.00
2022-11-09T19:13:31.396Z,13.00
2022-11-09T19:16:18.520Z,13.00
2022-11-09T19:19:06.292Z,13.10
2022-11-09T19:21:54.925Z,13.00
2022-11-09T19:24:41.421Z,12.90
2022-11-09T19:27:28.800Z,12.90
2022-11-09T19:30:15.240Z,12.90
2022-11-09T19:33:01.702Z,12.80
2022-11-09T19:36:23.330Z,12.70
2022-11-09T19:38:59.945Z,12.70
2022-11-09T19:41:46.557Z,12.60
2022-11-09T19:44:33.209Z,12.60
2022-11-09T19:47:19.813Z,12.60
2022-11-09T19:50:07.992Z,12.60
2022-11-09T19:52:55.969Z,12.50
2022-11-09T19:55:42.215Z,12.50
2022-11-09T19:58:28.867Z,12.50
2022-11-09T20:01:15.431Z,12.50
2022-11-09T20:04:07.653Z,12.50
2022-11-09T20:06:56.460Z,12.50
2022-11-09T20:09:44.351Z,12.40
2022-11-09T20:12:48.394Z,12.40
2022-11-09T20:15:36.274Z,12.40
2022-11-09T20:18:23.790Z,12.50
2022-11-09T20:21:10.657Z,12.40
2022-11-09T20:23:57.478Z,12.40
2022-11-09T20:26:45.301Z,12.40
2022-11-09T20:29:31.459Z,12.40
2022-11-09T20:32:21.461Z,12.40
2022-11-09T20:35:09.606Z,12.40
2022-11-09T20:37:56.216Z,12.40
2022-11-09T20:40:42.623Z,12.30
2022-11-09T20:43:30.849Z,12.40
2022-11-09T20:46:19.241Z,12.40
2022-11-09T20:49:06.087Z,12.40
2022-11-09T20:51:52.728Z,12.40
2022-11-09T20:54:39.492Z,12.40
2022-11-09T20:57:25.855Z,12.50
2022-11-09T21:00:17.286Z,12.50
2022-11-09T21:03:07.887Z,12.50
2022-11-09T21:05:59.200Z,12.50
2022-11-09T21:08:46.885Z,12.50
2022-11-09T21:11:57.100Z,12.50
2022-11-09T21:14:43.719Z,12.40
2022-11-09T21:17:31.669Z,12.40
2022-11-09T21:20:18.775Z,12.40
2022-11-09T21:23:23.209Z,12.40
2022-11-09T21:26:27.537Z,12.40
2022-11-09T21:29:33.886Z,12.40
2022-11-09T21:32:21.090Z,12.40
2022-11-09T21:35:09.666Z,12.40
2022-11-09T21:37:57.556Z,12.40
2022-11-09T21:40:43.872Z,12.40
2022-11-09T21:43:30.245Z,12.40
2022-11-09T21:46:16.462Z,12.40
2022-11-09T21:49:04.011Z,12.40
2022-11-09T21:51:51.570Z,12.40
2022-11-09T21:54:37.901Z,12.40
2022-11-09T21:57:24.477Z,12.40
2022-11-09T22:00:12.232Z,12.40
2022-11-09T22:02:58.807Z,12.40
2022-11-09T22:05:45.249Z,12.40
2022-11-09T22:08:33.009Z,12.40
2022-11-09T22:11:21.023Z,12.40
2022-11-09T22:14:24.889Z,12.40
2022-11-09T22:17:12.377Z,12.40
2022-11-09T22:20:16.361Z,12.40
2022-11-09T22:23:05.973Z,12.40
2022-11-09T22:25:54.001Z,12.40
2022-11-09T22:28:40.706Z,12.40
2022-11-09T22:31:27.706Z,12.40
2022-11-09T22:34:14.156Z,12.40
2022-11-09T22:37:00.861Z,12.40
2022-11-09T22:39:47.830Z,12.50
2022-11-09T22:42:35.680Z,12.50
2022-11-09T22:45:22.222Z,12.50
2022-11-09T22:48:08.868Z,12.50
2022-11-09T22:50:55.036Z,12.50
2022-11-09T22:53:41.711Z,12.50
2022-11-09T22:56:28.248Z,12.40
2022-11-09T22:59:16.233Z,12.40
2022-11-09T23:02:03.242Z,12.40
2022-11-09T23:04:50.196Z,12.30
2022-11-09T23:07:36.486Z,12.20
2022-11-09T23:10:23.974Z,12.30
2022-11-09T23:13:10.553Z,12.30
2022-11-09T23:16:00.108Z,12.40
2022-11-09T23:18:56.087Z,12.40
2022-11-09T23:21:42.918Z,12.30
2022-11-09T23:24:43.336Z,12.40
2022-11-09T23:27:29.766Z,12.40
2022-11-09T23:30:16.423Z,12.40
2022-11-09T23:33:04.561Z,12.40
2022-11-09T23:35:51.351Z,12.40
2022-11-09T23:38:39.283Z,12.40
2022-11-09T23:41:25.938Z,12.30
2022-11-09T23:44:12.531Z,12.30
2022-11-09T23:46:58.639Z,12.20
2022-11-09T23:49:46.256Z,12.30
2022-11-09T23:52:32.649Z,12.30
2022-11-09T23:55:19.333Z,12.30
2022-11-09T23:58:06.780Z,12.30
